sensor_id;sensor_type;location;lat;lon;timestamp;pressure;altitude;pressure_sealevel;temperature;humidity
49813;BME280;35706;52.100;5.056;2023-08-06T00:00:07;100331.72;;;19.81;78.52
49813;BME280;35706;52.100;5.056;2023-08-06T00:01:08;100335.22;;;19.75;79.00
49813;BME280;35706;52.100;5.056;2023-08-06T00:02:08;100342.16;;;19.83;79.10
49813;BME280;35706;52.100;5.056;2023-08-06T00:03:09;100340.91;;;19.79;79.17
49813;BME280;35706;52.100;5.056;2023-08-06T00:04:09;100345.44;;;19.78;77.99
49813;BME280;35706;52.100;5.056;2023-08-06T00:05:09;100348.16;;;19.51;80.98
49813;BME280;35706;52.100;5.056;2023-08-06T00:06:10;100347.09;;;19.52;79.41
49813;BME280;35706;52.100;5.056;2023-08-06T00:07:10;100341.19;;;19.37;81.38
49813;BME280;35706;52.100;5.056;2023-08-06T00:08:10;100344.22;;;19.41;80.08
49813;BME280;35706;52.100;5.056;2023-08-06T00:09:11;100341.19;;;19.30;81.03
49813;BME280;35706;52.100;5.056;2023-08-06T00:10:11;100339.13;;;19.46;80.69
49813;BME280;35706;52.100;5.056;2023-08-06T00:11:11;100346.50;;;19.44;80.36
49813;BME280;35706;52.100;5.056;2023-08-06T00:12:13;100345.69;;;19.43;80.74
49813;BME280;35706;52.100;5.056;2023-08-06T00:13:13;100344.22;;;19.41;80.90
49813;BME280;35706;52.100;5.056;2023-08-06T00:14:13;100343.22;;;19.48;80.36
49813;BME280;35706;52.100;5.056;2023-08-06T00:15:15;100343.78;;;19.64;80.63
49813;BME280;35706;52.100;5.056;2023-08-06T00:16:15;100346.69;;;19.76;80.41
49813;BME280;35706;52.100;5.056;2023-08-06T00:17:16;100343.78;;;19.64;79.94
49813;BME280;35706;52.100;5.056;2023-08-06T00:18:16;100341.16;;;19.57;80.10
49813;BME280;35706;52.100;5.056;2023-08-06T00:19:16;100340.75;;;19.40;81.28
49813;BME280;35706;52.100;5.056;2023-08-06T00:20:17;100333.75;;;19.72;80.30
49813;BME280;35706;52.100;5.056;2023-08-06T00:21:17;100338.69;;;19.69;79.18
49813;BME280;35706;52.100;5.056;2023-08-06T00:22:17;100343.56;;;19.85;80.12
49813;BME280;35706;52.100;5.056;2023-08-06T00:23:18;100337.00;;;19.95;79.10
49813;BME280;35706;52.100;5.056;2023-08-06T00:24:18;100339.84;;;20.00;78.72
49813;BME280;35706;52.100;5.056;2023-08-06T00:25:18;100332.88;;;19.99;78.45
49813;BME280;35706;52.100;5.056;2023-08-06T00:26:19;100339.06;;;19.92;77.60
49813;BME280;35706;52.100;5.056;2023-08-06T00:27:20;100336.19;;;19.87;78.60
49813;BME280;35706;52.100;5.056;2023-08-06T00:28:20;100334.81;;;20.23;78.96
49813;BME280;35706;52.100;5.056;2023-08-06T00:29:20;100343.41;;;20.39;77.48
49813;BME280;35706;52.100;5.056;2023-08-06T00:30:21;100348.44;;;20.53;77.41
49813;BME280;35706;52.100;5.056;2023-08-06T00:31:21;100344.13;;;20.59;76.89
49813;BME280;35706;52.100;5.056;2023-08-06T00:32:21;100339.31;;;20.74;76.39
49813;BME280;35706;52.100;5.056;2023-08-06T00:33:23;100344.16;;;20.84;75.67
49813;BME280;35706;52.100;5.056;2023-08-06T00:34:23;100329.56;;;20.87;75.64
49813;BME280;35706;52.100;5.056;2023-08-06T00:35:23;100337.91;;;20.97;75.45
49813;BME280;35706;52.100;5.056;2023-08-06T00:36:24;100345.88;;;21.04;74.79
49813;BME280;35706;52.100;5.056;2023-08-06T00:37:24;100338.84;;;21.09;74.47
49813;BME280;35706;52.100;5.056;2023-08-06T00:38:24;100341.91;;;21.13;73.93
49813;BME280;35706;52.100;5.056;2023-08-06T00:39:25;100342.28;;;21.17;74.02
49813;BME280;35706;52.100;5.056;2023-08-06T00:40:25;100345.00;;;21.10;73.40
49813;BME280;35706;52.100;5.056;2023-08-06T00:41:28;100338.47;;;21.06;73.71
49813;BME280;35706;52.100;5.056;2023-08-06T00:42:28;100340.88;;;21.14;73.85
49813;BME280;35706;52.100;5.056;2023-08-06T00:43:29;100349.94;;;21.13;73.83
49813;BME280;35706;52.100;5.056;2023-08-06T00:44:29;100339.47;;;21.11;74.24
49813;BME280;35706;52.100;5.056;2023-08-06T00:45:30;100334.88;;;21.19;73.90
49813;BME280;35706;52.100;5.056;2023-08-06T00:46:32;100333.03;;;21.19;73.66
49813;BME280;35706;52.100;5.056;2023-08-06T00:47:33;100342.53;;;21.15;73.64
49813;BME280;35706;52.100;5.056;2023-08-06T00:48:34;100336.13;;;21.16;73.96
49813;BME280;35706;52.100;5.056;2023-08-06T00:49:35;100339.13;;;21.26;73.85
49813;BME280;35706;52.100;5.056;2023-08-06T00:50:36;100334.59;;;21.27;73.51
49813;BME280;35706;52.100;5.056;2023-08-06T00:51:36;100329.84;;;21.29;73.42
49813;BME280;35706;52.100;5.056;2023-08-06T00:52:37;100334.00;;;21.25;73.39
49813;BME280;35706;52.100;5.056;2023-08-06T00:53:38;100343.88;;;21.24;73.07
49813;BME280;35706;52.100;5.056;2023-08-06T00:54:39;100340.00;;;21.20;73.13
49813;BME280;35706;52.100;5.056;2023-08-06T00:55:40;100339.78;;;21.22;73.16
49813;BME280;35706;52.100;5.056;2023-08-06T00:56:41;100334.78;;;21.32;73.00
49813;BME280;35706;52.100;5.056;2023-08-06T00:57:42;100335.44;;;21.27;72.92
49813;BME280;35706;52.100;5.056;2023-08-06T00:58:42;100337.66;;;21.30;72.53
49813;BME280;35706;52.100;5.056;2023-08-06T00:59:44;100335.38;;;21.34;72.52
49813;BME280;35706;52.100;5.056;2023-08-06T01:00:44;100339.34;;;21.25;72.45
49813;BME280;35706;52.100;5.056;2023-08-06T01:01:45;100338.66;;;21.36;72.33
49813;BME280;35706;52.100;5.056;2023-08-06T01:02:46;100336.78;;;21.37;72.17
49813;BME280;35706;52.100;5.056;2023-08-06T01:03:46;100341.75;;;21.33;72.47
49813;BME280;35706;52.100;5.056;2023-08-06T01:04:46;100336.31;;;21.21;72.18
49813;BME280;35706;52.100;5.056;2023-08-06T01:05:47;100337.66;;;21.05;72.80
49813;BME280;35706;52.100;5.056;2023-08-06T01:06:48;100334.06;;;21.18;72.84
49813;BME280;35706;52.100;5.056;2023-08-06T01:08:35;100334.25;;;21.17;72.45
49813;BME280;35706;52.100;5.056;2023-08-06T01:11:14;100331.91;;;21.27;72.61
49813;BME280;35706;52.100;5.056;2023-08-06T01:12:34;100332.97;;;21.26;72.44
49813;BME280;35706;52.100;5.056;2023-08-06T01:13:45;100331.72;;;21.28;72.25
49813;BME280;35706;52.100;5.056;2023-08-06T01:14:54;100330.31;;;21.26;72.64
49813;BME280;35706;52.100;5.056;2023-08-06T01:15:58;100331.97;;;21.20;72.65
49813;BME280;35706;52.100;5.056;2023-08-06T01:17:03;100328.88;;;21.23;72.20
49813;BME280;35706;52.100;5.056;2023-08-06T01:18:04;100327.16;;;21.10;72.17
49813;BME280;35706;52.100;5.056;2023-08-06T01:19:05;100333.09;;;21.12;72.63
49813;BME280;35706;52.100;5.056;2023-08-06T01:20:05;100331.38;;;21.18;72.28
49813;BME280;35706;52.100;5.056;2023-08-06T01:21:06;100335.91;;;21.18;72.58
49813;BME280;35706;52.100;5.056;2023-08-06T01:22:06;100331.84;;;21.15;72.82
49813;BME280;35706;52.100;5.056;2023-08-06T01:23:07;100329.31;;;21.20;72.31
49813;BME280;35706;52.100;5.056;2023-08-06T01:24:07;100333.09;;;21.12;72.91
49813;BME280;35706;52.100;5.056;2023-08-06T01:25:08;100327.50;;;21.14;72.55
49813;BME280;35706;52.100;5.056;2023-08-06T01:26:19;100332.38;;;21.24;72.48
49813;BME280;35706;52.100;5.056;2023-08-06T01:27:29;100327.41;;;21.27;72.34
49813;BME280;35706;52.100;5.056;2023-08-06T01:31:07;100330.44;;;21.31;71.88
49813;BME280;35706;52.100;5.056;2023-08-06T01:32:12;100324.34;;;21.24;72.27
49813;BME280;35706;52.100;5.056;2023-08-06T01:33:16;100320.63;;;21.25;71.98
49813;BME280;35706;52.100;5.056;2023-08-06T01:34:24;100324.56;;;21.22;72.07
49813;BME280;35706;52.100;5.056;2023-08-06T01:35:27;100325.75;;;21.26;72.34
49813;BME280;35706;52.100;5.056;2023-08-06T01:36:30;100327.25;;;21.22;72.33
49813;BME280;35706;52.100;5.056;2023-08-06T01:37:31;100330.13;;;21.21;72.41
49813;BME280;35706;52.100;5.056;2023-08-06T01:38:31;100329.81;;;21.10;72.52
49813;BME280;35706;52.100;5.056;2023-08-06T01:39:35;100328.38;;;20.83;73.62
49813;BME280;35706;52.100;5.056;2023-08-06T01:40:35;100330.16;;;20.89;73.39
49813;BME280;35706;52.100;5.056;2023-08-06T01:41:35;100329.47;;;21.00;73.10
49813;BME280;35706;52.100;5.056;2023-08-06T01:42:36;100332.09;;;21.07;72.98
49813;BME280;35706;52.100;5.056;2023-08-06T01:43:36;100331.84;;;21.15;72.68
49813;BME280;35706;52.100;5.056;2023-08-06T01:44:36;100328.34;;;21.14;72.35
49813;BME280;35706;52.100;5.056;2023-08-06T01:45:37;100329.53;;;21.19;72.17
49813;BME280;35706;52.100;5.056;2023-08-06T01:46:37;100328.91;;;21.17;72.17
49813;BME280;35706;52.100;5.056;2023-08-06T01:47:37;100333.84;;;21.20;72.41
49813;BME280;35706;52.100;5.056;2023-08-06T01:48:38;100332.78;;;21.21;72.09
49813;BME280;35706;52.100;5.056;2023-08-06T01:49:38;100329.38;;;21.13;72.26
49813;BME280;35706;52.100;5.056;2023-08-06T01:50:38;100335.72;;;21.19;72.15
49813;BME280;35706;52.100;5.056;2023-08-06T01:51:39;100334.88;;;21.19;72.45
49813;BME280;35706;52.100;5.056;2023-08-06T01:52:39;100329.53;;;21.19;72.33
49813;BME280;35706;52.100;5.056;2023-08-06T01:53:39;100336.38;;;21.14;72.42
49813;BME280;35706;52.100;5.056;2023-08-06T01:54:40;100334.88;;;21.19;71.98
49813;BME280;35706;52.100;5.056;2023-08-06T01:55:40;100331.03;;;21.14;72.14
49813;BME280;35706;52.100;5.056;2023-08-06T01:56:40;100334.25;;;21.17;72.40
49813;BME280;35706;52.100;5.056;2023-08-06T01:57:41;100333.78;;;21.01;72.74
49813;BME280;35706;52.100;5.056;2023-08-06T01:58:41;100340.13;;;21.07;72.42
49813;BME280;35706;52.100;5.056;2023-08-06T01:59:41;100326.91;;;21.12;72.27
49813;BME280;35706;52.100;5.056;2023-08-06T02:00:42;100332.84;;;21.14;72.29
49813;BME280;35706;52.100;5.056;2023-08-06T02:01:42;100344.19;;;21.09;72.42
49813;BME280;35706;52.100;5.056;2023-08-06T02:02:42;100336.50;;;21.20;72.19
49813;BME280;35706;52.100;5.056;2023-08-06T02:03:43;100335.09;;;21.17;72.01
49813;BME280;35706;52.100;5.056;2023-08-06T02:04:43;100339.66;;;21.10;72.61
49813;BME280;35706;52.100;5.056;2023-08-06T02:05:43;100337.72;;;20.99;72.62
49813;BME280;35706;52.100;5.056;2023-08-06T02:06:44;100339.72;;;21.03;72.93
49813;BME280;35706;52.100;5.056;2023-08-06T02:07:44;100337.38;;;21.13;72.56
49813;BME280;35706;52.100;5.056;2023-08-06T02:08:44;100334.72;;;21.13;72.41
49813;BME280;35706;52.100;5.056;2023-08-06T02:09:45;100336.78;;;21.11;72.34
49813;BME280;35706;52.100;5.056;2023-08-06T02:10:45;100340.28;;;21.12;72.37
49813;BME280;35706;52.100;5.056;2023-08-06T02:11:45;100338.69;;;21.04;72.77
49813;BME280;35706;52.100;5.056;2023-08-06T02:12:46;100338.09;;;21.02;72.90
49813;BME280;35706;52.100;5.056;2023-08-06T02:13:46;100342.25;;;20.66;73.67
49813;BME280;35706;52.100;5.056;2023-08-06T02:14:46;100343.53;;;20.89;73.66
49813;BME280;35706;52.100;5.056;2023-08-06T02:15:47;100340.28;;;20.42;75.16
49813;BME280;35706;52.100;5.056;2023-08-06T02:16:50;100339.59;;;20.53;75.29
49813;BME280;35706;52.100;5.056;2023-08-06T02:17:50;100351.94;;;20.54;75.17
49813;BME280;35706;52.100;5.056;2023-08-06T02:18:51;100344.09;;;20.66;74.63
49813;BME280;35706;52.100;5.056;2023-08-06T02:19:51;100340.34;;;20.73;74.53
49813;BME280;35706;52.100;5.056;2023-08-06T02:20:58;100339.22;;;20.88;74.20
49813;BME280;35706;52.100;5.056;2023-08-06T02:21:58;100340.09;;;20.82;73.78
49813;BME280;35706;52.100;5.056;2023-08-06T02:22:59;100342.16;;;20.80;74.25
49813;BME280;35706;52.100;5.056;2023-08-06T02:23:59;100338.88;;;20.78;74.05
49813;BME280;35706;52.100;5.056;2023-08-06T02:24:59;100347.66;;;20.85;73.77
49813;BME280;35706;52.100;5.056;2023-08-06T02:26:01;100339.03;;;20.89;73.84
49813;BME280;35706;52.100;5.056;2023-08-06T02:27:02;100345.88;;;20.79;73.77
49813;BME280;35706;52.100;5.056;2023-08-06T02:28:02;100340.28;;;20.80;73.77
49813;BME280;35706;52.100;5.056;2023-08-06T02:29:02;100340.94;;;20.76;74.08
49813;BME280;35706;52.100;5.056;2023-08-06T02:30:04;100346.09;;;20.77;74.37
49813;BME280;35706;52.100;5.056;2023-08-06T02:31:04;100344.38;;;19.99;76.96
49813;BME280;35706;52.100;5.056;2023-08-06T02:32:07;100344.03;;;19.76;78.52
49813;BME280;35706;52.100;5.056;2023-08-06T02:33:07;100343.63;;;19.39;80.43
49813;BME280;35706;52.100;5.056;2023-08-06T02:34:08;100346.91;;;19.21;81.88
49813;BME280;35706;52.100;5.056;2023-08-06T02:35:08;100349.16;;;19.10;82.46
49813;BME280;35706;52.100;5.056;2023-08-06T02:36:08;100340.75;;;19.07;82.71
49813;BME280;35706;52.100;5.056;2023-08-06T02:37:09;100342.41;;;19.01;83.47
49813;BME280;35706;52.100;5.056;2023-08-06T02:38:09;100342.78;;;19.05;83.50
49813;BME280;35706;52.100;5.056;2023-08-06T02:39:09;100337.91;;;19.02;83.48
49813;BME280;35706;52.100;5.056;2023-08-06T02:40:10;100344.03;;;19.02;83.63
49813;BME280;35706;52.100;5.056;2023-08-06T02:41:10;100335.84;;;18.97;84.02
49813;BME280;35706;52.100;5.056;2023-08-06T02:42:11;100339.66;;;18.68;85.25
49813;BME280;35706;52.100;5.056;2023-08-06T02:43:12;100337.63;;;18.77;85.10
49813;BME280;35706;52.100;5.056;2023-08-06T02:44:12;100336.19;;;18.74;85.56
49813;BME280;35706;52.100;5.056;2023-08-06T02:45:12;100345.59;;;18.70;85.19
49813;BME280;35706;52.100;5.056;2023-08-06T02:46:12;100341.34;;;18.82;85.14
49813;BME280;35706;52.100;5.056;2023-08-06T02:47:13;100348.47;;;18.75;85.10
49813;BME280;35706;52.100;5.056;2023-08-06T02:48:13;100341.50;;;18.67;85.27
49813;BME280;35706;52.100;5.056;2023-08-06T02:49:13;100343.53;;;18.65;85.94
49813;BME280;35706;52.100;5.056;2023-08-06T02:50:14;100341.31;;;18.69;85.54
49813;BME280;35706;52.100;5.056;2023-08-06T02:51:14;100343.53;;;18.65;85.43
49813;BME280;35706;52.100;5.056;2023-08-06T02:52:14;100344.16;;;18.67;85.48
49813;BME280;35706;52.100;5.056;2023-08-06T02:53:15;100344.19;;;18.74;85.18
49813;BME280;35706;52.100;5.056;2023-08-06T02:54:15;100337.19;;;18.66;85.51
49813;BME280;35706;52.100;5.056;2023-08-06T02:55:15;100343.38;;;18.74;85.58
49813;BME280;35706;52.100;5.056;2023-08-06T02:56:16;100340.47;;;18.68;85.49
49813;BME280;35706;52.100;5.056;2023-08-06T02:57:16;100343.53;;;18.65;85.86
49813;BME280;35706;52.100;5.056;2023-08-06T02:58:16;100345.19;;;18.73;85.46
49813;BME280;35706;52.100;5.056;2023-08-06T02:59:17;100341.88;;;18.58;86.08
49813;BME280;35706;52.100;5.056;2023-08-06T03:00:17;100337.19;;;18.60;86.07
49813;BME280;35706;52.100;5.056;2023-08-06T03:01:18;100331.44;;;18.56;86.42
49813;BME280;35706;52.100;5.056;2023-08-06T03:02:18;100335.72;;;18.50;86.70
49813;BME280;35706;52.100;5.056;2023-08-06T03:03:18;100335.25;;;18.34;87.37
49813;BME280;35706;52.100;5.056;2023-08-06T03:04:19;100334.25;;;18.41;87.18
49813;BME280;35706;52.100;5.056;2023-08-06T03:05:19;100328.28;;;18.33;87.38
49813;BME280;35706;52.100;5.056;2023-08-06T03:06:20;100332.59;;;18.34;87.44
49813;BME280;35706;52.100;5.056;2023-08-06T03:07:20;100334.22;;;18.35;87.54
49813;BME280;35706;52.100;5.056;2023-08-06T03:08:20;100323.41;;;18.36;87.79
49813;BME280;35706;52.100;5.056;2023-08-06T03:09:23;100333.44;;;18.47;87.49
49813;BME280;35706;52.100;5.056;2023-08-06T03:10:24;100331.41;;;18.43;87.29
49813;BME280;35706;52.100;5.056;2023-08-06T03:11:24;100330.75;;;18.34;87.83
49813;BME280;35706;52.100;5.056;2023-08-06T03:12:24;100334.47;;;18.33;87.96
49813;BME280;35706;52.100;5.056;2023-08-06T03:13:25;100331.59;;;18.41;87.70
49813;BME280;35706;52.100;5.056;2023-08-06T03:14:25;100332.19;;;18.37;87.81
49813;BME280;35706;52.100;5.056;2023-08-06T03:15:25;100329.13;;;18.33;87.90
49813;BME280;35706;52.100;5.056;2023-08-06T03:16:26;100330.41;;;18.44;87.66
49813;BME280;35706;52.100;5.056;2023-08-06T03:17:26;100331.81;;;18.46;87.58
49813;BME280;35706;52.100;5.056;2023-08-06T03:18:26;100329.16;;;18.46;87.83
49813;BME280;35706;52.100;5.056;2023-08-06T03:19:27;100323.41;;;18.36;88.22
49813;BME280;35706;52.100;5.056;2023-08-06T03:20:27;100326.25;;;18.35;87.94
49813;BME280;35706;52.100;5.056;2023-08-06T03:21:28;100322.59;;;18.36;87.93
49813;BME280;35706;52.100;5.056;2023-08-06T03:22:28;100337.75;;;18.42;87.91
49813;BME280;35706;52.100;5.056;2023-08-06T03:23:28;100327.75;;;18.50;87.69
49813;BME280;35706;52.100;5.056;2023-08-06T03:24:29;100328.75;;;18.49;87.89
49813;BME280;35706;52.100;5.056;2023-08-06T03:25:29;100329.59;;;18.50;87.52
49813;BME280;35706;52.100;5.056;2023-08-06T03:26:29;100336.13;;;18.54;87.54
49813;BME280;35706;52.100;5.056;2023-08-06T03:27:29;100333.09;;;18.57;87.44
49813;BME280;35706;52.100;5.056;2023-08-06T03:28:30;100327.13;;;18.55;87.51
49813;BME280;35706;52.100;5.056;2023-08-06T03:29:30;100327.94;;;18.49;88.00
49813;BME280;35706;52.100;5.056;2023-08-06T03:30:30;100328.75;;;18.49;87.86
49813;BME280;35706;52.100;5.056;2023-08-06T03:31:31;100333.63;;;18.39;88.53
49813;BME280;35706;52.100;5.056;2023-08-06T03:32:31;100331.41;;;18.43;88.45
49813;BME280;35706;52.100;5.056;2023-08-06T03:33:31;100327.72;;;18.37;88.53
49813;BME280;35706;52.100;5.056;2023-08-06T03:34:32;100328.31;;;18.39;88.77
49813;BME280;35706;52.100;5.056;2023-08-06T03:35:32;100331.81;;;18.40;89.07
49813;BME280;35706;52.100;5.056;2023-08-06T03:36:32;100335.69;;;18.37;89.14
49813;BME280;35706;52.100;5.056;2023-08-06T03:37:33;100336.88;;;18.28;89.40
49813;BME280;35706;52.100;5.056;2023-08-06T03:38:33;100332.31;;;18.15;89.98
49813;BME280;35706;52.100;5.056;2023-08-06T03:39:33;100340.53;;;18.20;89.93
49813;BME280;35706;52.100;5.056;2023-08-06T03:40:35;100331.56;;;18.35;89.67
49813;BME280;35706;52.100;5.056;2023-08-06T03:41:36;100336.88;;;18.28;89.92
49813;BME280;35706;52.100;5.056;2023-08-06T03:42:36;100332.19;;;18.30;89.71
49813;BME280;35706;52.100;5.056;2023-08-06T03:43:36;100336.69;;;18.29;89.86
49813;BME280;35706;52.100;5.056;2023-08-06T03:44:37;100343.81;;;18.22;90.28
49813;BME280;35706;52.100;5.056;2023-08-06T03:45:37;100334.47;;;18.40;89.44
49813;BME280;35706;52.100;5.056;2023-08-06T03:46:37;100335.09;;;18.42;89.23
49813;BME280;35706;52.100;5.056;2023-08-06T03:47:38;100342.66;;;18.45;89.00
49813;BME280;35706;52.100;5.056;2023-08-06T03:48:38;100339.63;;;18.48;88.96
49813;BME280;35706;52.100;5.056;2023-08-06T03:49:38;100338.38;;;18.44;88.99
49813;BME280;35706;52.100;5.056;2023-08-06T03:50:39;100335.88;;;18.36;89.63
49813;BME280;35706;52.100;5.056;2023-08-06T03:51:39;100330.56;;;18.36;89.53
49813;BME280;35706;52.100;5.056;2023-08-06T03:52:39;100328.34;;;18.46;89.45
49813;BME280;35706;52.100;5.056;2023-08-06T03:53:40;100334.06;;;18.43;89.27
49813;BME280;35706;52.100;5.056;2023-08-06T03:54:40;100336.13;;;18.47;89.54
49813;BME280;35706;52.100;5.056;2023-08-06T03:55:43;100337.94;;;18.34;90.03
49813;BME280;35706;52.100;5.056;2023-08-06T03:56:43;100336.91;;;18.41;89.68
49813;BME280;35706;52.100;5.056;2023-08-06T03:57:43;100334.88;;;18.43;89.43
49813;BME280;35706;52.100;5.056;2023-08-06T03:58:43;100330.75;;;18.27;90.09
49813;BME280;35706;52.100;5.056;2023-08-06T03:59:44;100333.16;;;18.22;90.62
49813;BME280;35706;52.100;5.056;2023-08-06T04:00:45;100333.59;;;18.26;90.51
49813;BME280;35706;52.100;5.056;2023-08-06T04:01:45;100326.03;;;18.29;90.23
49813;BME280;35706;52.100;5.056;2023-08-06T04:02:45;100332.19;;;18.30;90.64
49813;BME280;35706;52.100;5.056;2023-08-06T04:03:45;100327.47;;;18.32;90.28
49813;BME280;35706;52.100;5.056;2023-08-06T04:04:46;100333.41;;;18.34;90.30
49813;BME280;35706;52.100;5.056;2023-08-06T04:05:46;100334.84;;;18.30;91.00
49813;BME280;35706;52.100;5.056;2023-08-06T04:06:46;100331.53;;;18.21;91.16
49813;BME280;35706;52.100;5.056;2023-08-06T04:07:46;100335.22;;;18.20;91.29
49813;BME280;35706;52.100;5.056;2023-08-06T04:08:47;100329.28;;;18.18;91.37
49813;BME280;35706;52.100;5.056;2023-08-06T04:10:01;100334.84;;;18.30;90.92
49813;BME280;35706;52.100;5.056;2023-08-06T04:11:02;100331.97;;;18.25;90.85
49813;BME280;35706;52.100;5.056;2023-08-06T04:12:02;100337.94;;;18.34;90.69
49813;BME280;35706;52.100;5.056;2023-08-06T04:13:04;100336.69;;;18.29;90.80
49813;BME280;35706;52.100;5.056;2023-08-06T04:14:05;100335.47;;;18.32;90.76
49813;BME280;35706;52.100;5.056;2023-08-06T04:15:05;100337.13;;;18.33;91.10
49813;BME280;35706;52.100;5.056;2023-08-06T04:16:06;100341.81;;;18.31;91.10
49813;BME280;35706;52.100;5.056;2023-08-06T04:17:06;100336.50;;;18.38;90.51
49813;BME280;35706;52.100;5.056;2023-08-06T04:18:07;100343.88;;;18.42;90.38
49813;BME280;35706;52.100;5.056;2023-08-06T04:19:07;100340.78;;;18.39;90.16
49813;BME280;35706;52.100;5.056;2023-08-06T04:20:07;100343.69;;;18.44;90.05
49813;BME280;35706;52.100;5.056;2023-08-06T04:21:08;100334.50;;;18.46;89.44
49813;BME280;35706;52.100;5.056;2023-08-06T04:22:08;100343.47;;;18.39;90.35
49813;BME280;35706;52.100;5.056;2023-08-06T04:23:09;100340.59;;;18.40;89.95
49813;BME280;35706;52.100;5.056;2023-08-06T04:24:09;100343.44;;;18.32;90.12
49813;BME280;35706;52.100;5.056;2023-08-06T04:25:09;100337.13;;;18.40;89.44
49813;BME280;35706;52.100;5.056;2023-08-06T04:26:10;100340.00;;;18.45;89.60
49813;BME280;35706;52.100;5.056;2023-08-06T04:27:11;100344.53;;;18.51;89.45
49813;BME280;35706;52.100;5.056;2023-08-06T04:28:11;100343.28;;;18.47;89.65
49813;BME280;35706;52.100;5.056;2023-08-06T04:29:11;100340.88;;;18.52;88.68
49813;BME280;35706;52.100;5.056;2023-08-06T04:30:12;100342.28;;;18.48;89.06
49813;BME280;35706;52.100;5.056;2023-08-06T04:31:12;100345.16;;;18.53;89.27
49813;BME280;35706;52.100;5.056;2023-08-06T04:32:13;100351.09;;;18.55;89.04
49813;BME280;35706;52.100;5.056;2023-08-06T04:33:13;100351.69;;;18.50;89.79
49813;BME280;35706;52.100;5.056;2023-08-06T04:34:13;100351.91;;;18.56;89.39
49813;BME280;35706;52.100;5.056;2023-08-06T04:35:14;100343.31;;;18.54;88.86
49813;BME280;35706;52.100;5.056;2023-08-06T04:36:14;100347.81;;;18.53;89.30
49813;BME280;35706;52.100;5.056;2023-08-06T04:37:14;100358.03;;;18.56;88.69
49813;BME280;35706;52.100;5.056;2023-08-06T04:38:15;100356.84;;;18.52;89.09
49813;BME280;35706;52.100;5.056;2023-08-06T04:39:15;100361.13;;;18.53;89.35
49813;BME280;35706;52.100;5.056;2023-08-06T04:40:15;100361.94;;;18.54;89.16
49813;BME280;35706;52.100;5.056;2023-08-06T04:41:16;100361.72;;;18.48;89.68
49813;BME280;35706;52.100;5.056;2023-08-06T04:42:17;100363.47;;;18.28;90.34
49813;BME280;35706;52.100;5.056;2023-08-06T04:43:17;100363.13;;;18.38;90.13
49813;BME280;35706;52.100;5.056;2023-08-06T04:44:17;100362.66;;;18.27;90.63
49813;BME280;35706;52.100;5.056;2023-08-06T04:45:18;100362.06;;;18.32;90.35
49813;BME280;35706;52.100;5.056;2023-08-06T04:46:18;100362.69;;;18.34;90.42
49813;BME280;35706;52.100;5.056;2023-08-06T04:47:19;100368.44;;;18.38;90.58
49813;BME280;35706;52.100;5.056;2023-08-06T04:48:19;100360.06;;;18.47;90.03
49813;BME280;35706;52.100;5.056;2023-08-06T04:49:22;100358.47;;;18.60;89.60
49813;BME280;35706;52.100;5.056;2023-08-06T04:50:23;100368.28;;;18.46;90.19
49813;BME280;35706;52.100;5.056;2023-08-06T04:51:23;100358.66;;;18.51;89.72
49813;BME280;35706;52.100;5.056;2023-08-06T04:52:23;100369.09;;;18.53;88.78
49813;BME280;35706;52.100;5.056;2023-08-06T04:53:27;100369.09;;;18.53;89.54
49813;BME280;35706;52.100;5.056;2023-08-06T04:54:28;100370.53;;;18.56;89.11
49813;BME280;35706;52.100;5.056;2023-08-06T04:55:28;100372.56;;;18.54;89.29
49813;BME280;35706;52.100;5.056;2023-08-06T04:56:29;100374.22;;;18.55;89.39
49813;BME280;35706;52.100;5.056;2023-08-06T04:57:29;100368.94;;;18.61;89.29
49813;BME280;35706;52.100;5.056;2023-08-06T04:58:29;100366.91;;;18.70;88.67
49813;BME280;35706;52.100;5.056;2023-08-06T04:59:29;100370.78;;;18.67;89.27
49813;BME280;35706;52.100;5.056;2023-08-06T05:00:30;100369.97;;;18.67;89.25
49813;BME280;35706;52.100;5.056;2023-08-06T05:01:30;100369.38;;;18.71;88.95
49813;BME280;35706;52.100;5.056;2023-08-06T05:02:31;100374.47;;;18.73;88.98
49813;BME280;35706;52.100;5.056;2023-08-06T05:03:32;100377.13;;;18.66;89.29
49813;BME280;35706;52.100;5.056;2023-08-06T05:04:32;100372.81;;;18.65;89.04
49813;BME280;35706;52.100;5.056;2023-08-06T05:05:33;100377.34;;;18.65;89.56
49813;BME280;35706;52.100;5.056;2023-08-06T05:06:33;100380.19;;;18.63;89.53
49813;BME280;35706;52.100;5.056;2023-08-06T05:07:34;100379.97;;;18.58;89.49
49813;BME280;35706;52.100;5.056;2023-08-06T05:08:34;100385.91;;;18.60;89.72
49813;BME280;35706;52.100;5.056;2023-08-06T05:09:34;100384.47;;;18.58;89.64
49813;BME280;35706;52.100;5.056;2023-08-06T05:10:34;100379.75;;;18.60;89.47
49813;BME280;35706;52.100;5.056;2023-08-06T05:11:35;100381.19;;;18.62;89.64
49813;BME280;35706;52.100;5.056;2023-08-06T05:12:35;100382.00;;;18.56;90.03
49813;BME280;35706;52.100;5.056;2023-08-06T05:13:35;100380.00;;;18.65;89.50
49813;BME280;35706;52.100;5.056;2023-08-06T05:14:36;100383.28;;;18.74;89.42
49813;BME280;35706;52.100;5.056;2023-08-06T05:15:36;100382.44;;;18.66;89.72
49813;BME280;35706;52.100;5.056;2023-08-06T05:16:37;100391.28;;;18.67;89.40
49813;BME280;35706;52.100;5.056;2023-08-06T05:17:37;100384.47;;;18.64;89.87
49813;BME280;35706;52.100;5.056;2023-08-06T05:18:37;100386.94;;;18.59;89.81
49813;BME280;35706;52.100;5.056;2023-08-06T05:19:38;100385.72;;;18.68;89.37
49813;BME280;35706;52.100;5.056;2023-08-06T05:20:41;100386.34;;;18.70;88.59
49813;BME280;35706;52.100;5.056;2023-08-06T05:21:42;100392.47;;;18.64;88.87
49813;BME280;35706;52.100;5.056;2023-08-06T05:22:43;100396.16;;;18.63;89.33